sensor_id;sensor_type;location;lat;lon;timestamp;pressure;altitude;pressure_sealevel;temperature;humidity
61474;BME280;53694;49.784;30.150;2022-11-11T00:00:26;100563.58;;;12.10;69.91
61474;BME280;53694;49.784;30.150;2022-11-11T00:01:28;100568.25;;;12.21;69.26
61474;BME280;53694;49.784;30.150;2022-11-11T00:02:30;100564.30;;;12.35;68.92
61474;BME280;53694;49.784;30.150;2022-11-11T00:03:31;100560.05;;;12.37;68.46
61474;BME280;53694;49.784;30.150;2022-11-11T00:04:33;100560.53;;;12.27;68.32
61474;BME280;53694;49.784;30.150;2022-11-11T00:05:35;100561.54;;;12.07;68.79
61474;BME280;53694;49.784;30.150;2022-11-11T00:06:36;100563.40;;;11.78;69.32
61474;BME280;53694;49.784;30.150;2022-11-11T00:07:38;100562.39;;;11.46;70.24
61474;BME280;53694;49.784;30.150;2022-11-11T00:08:40;100561.81;;;11.16;71.19
61474;BME280;53694;49.784;30.150;2022-11-11T00:09:42;100562.00;;;10.86;72.15
61474;BME280;53694;49.784;30.150;2022-11-11T00:10:43;100560.01;;;10.62;73.16
61474;BME280;53694;49.784;30.150;2022-11-11T00:11:45;100558.95;;;10.55;73.81
61474;BME280;53694;49.784;30.150;2022-11-11T00:12:46;100556.66;;;10.57;74.12
61474;BME280;53694;49.784;30.150;2022-11-11T00:13:48;100561.03;;;10.70;74.15
61474;BME280;53694;49.784;30.150;2022-11-11T00:14:49;100561.67;;;10.88;73.92
61474;BME280;53694;49.784;30.150;2022-11-11T00:15:51;100558.02;;;11.08;73.62
61474;BME280;53694;49.784;30.150;2022-11-11T00:16:52;100557.59;;;11.31;72.91
61474;BME280;53694;49.784;30.150;2022-11-11T00:17:54;100557.00;;;11.49;71.92
61474;BME280;53694;49.784;30.150;2022-11-11T00:18:55;100558.27;;;11.64;71.35
61474;BME280;53694;49.784;30.150;2022-11-11T00:19:57;100566.16;;;11.78;71.08
61474;BME280;53694;49.784;30.150;2022-11-11T00:20:59;100562.61;;;11.90;70.52
61474;BME280;53694;49.784;30.150;2022-11-11T00:22:00;100561.76;;;12.01;70.17
61474;BME280;53694;49.784;30.150;2022-11-11T00:23:02;100560.82;;;12.10;69.48
61474;BME280;53694;49.784;30.150;2022-11-11T00:24:07;100564.16;;;12.15;69.39
61474;BME280;53694;49.784;30.150;2022-11-11T00:25:09;100565.13;;;12.23;69.30
61474;BME280;53694;49.784;30.150;2022-11-11T00:26:13;100558.14;;;12.25;69.05
61474;BME280;53694;49.784;30.150;2022-11-11T00:27:15;100562.20;;;12.16;68.72
61474;BME280;53694;49.784;30.150;2022-11-11T00:28:17;100569.16;;;11.85;69.33
61474;BME280;53694;49.784;30.150;2022-11-11T00:29:18;100564.58;;;11.53;70.30
61474;BME280;53694;49.784;30.150;2022-11-11T00:30:20;100559.53;;;11.18;71.41
61474;BME280;53694;49.784;30.150;2022-11-11T00:31:21;100567.17;;;10.88;72.50
61474;BME280;53694;49.784;30.150;2022-11-11T00:32:23;100566.63;;;10.61;73.56
61474;BME280;53694;49.784;30.150;2022-11-11T00:33:24;100561.08;;;10.49;74.36
61474;BME280;53694;49.784;30.150;2022-11-11T00:34:26;100564.31;;;10.51;74.86
61474;BME280;53694;49.784;30.150;2022-11-11T00:35:27;100565.38;;;10.59;74.86
61474;BME280;53694;49.784;30.150;2022-11-11T00:36:29;100569.41;;;10.73;74.74
61474;BME280;53694;49.784;30.150;2022-11-11T00:37:31;100574.27;;;10.89;74.30
61474;BME280;53694;49.784;30.150;2022-11-11T00:38:33;100574.86;;;11.07;73.96
61474;BME280;53694;49.784;30.150;2022-11-11T00:39:35;100574.20;;;11.22;73.53
61474;BME280;53694;49.784;30.150;2022-11-11T00:40:36;100575.58;;;11.40;73.13
61474;BME280;53694;49.784;30.150;2022-11-11T00:41:38;100576.02;;;11.55;72.37
61474;BME280;53694;49.784;30.150;2022-11-11T00:42:40;100578.33;;;11.65;71.84
61474;BME280;53694;49.784;30.150;2022-11-11T00:43:42;100577.84;;;11.75;71.46
61474;BME280;53694;49.784;30.150;2022-11-11T00:44:44;100575.80;;;11.84;71.16
61474;BME280;53694;49.784;30.150;2022-11-11T00:45:45;100583.59;;;11.94;70.82
61474;BME280;53694;49.784;30.150;2022-11-11T00:46:47;100581.39;;;12.00;70.42
61474;BME280;53694;49.784;30.150;2022-11-11T00:47:49;100580.34;;;12.05;70.19
61474;BME280;53694;49.784;30.150;2022-11-11T00:48:50;100579.77;;;12.11;70.06
61474;BME280;53694;49.784;30.150;2022-11-11T00:49:52;100580.31;;;12.17;69.76
61474;BME280;53694;49.784;30.150;2022-11-11T00:50:53;100575.35;;;12.22;69.44
61474;BME280;53694;49.784;30.150;2022-11-11T00:51:55;100575.46;;;12.26;69.12
61474;BME280;53694;49.784;30.150;2022-11-11T00:52:56;100579.27;;;12.21;69.12
61474;BME280;53694;49.784;30.150;2022-11-11T00:53:58;100588.24;;;12.06;69.47
61474;BME280;53694;49.784;30.150;2022-11-11T00:54:59;100580.71;;;11.79;70.10
61474;BME280;53694;49.784;30.150;2022-11-11T00:56:01;100583.36;;;11.50;70.94
61474;BME280;53694;49.784;30.150;2022-11-11T00:57:02;100576.03;;;11.18;71.98
61474;BME280;53694;49.784;30.150;2022-11-11T00:58:04;100579.89;;;10.92;72.92
61474;BME280;53694;49.784;30.150;2022-11-11T00:59:07;100579.73;;;10.76;73.85
61474;BME280;53694;49.784;30.150;2022-11-11T01:00:10;100578.12;;;10.75;74.25
61474;BME280;53694;49.784;30.150;2022-11-11T01:01:12;100580.30;;;10.82;74.39
61474;BME280;53694;49.784;30.150;2022-11-11T01:02:14;100573.69;;;10.95;74.31
61474;BME280;53694;49.784;30.150;2022-11-11T01:03:15;100592.28;;;11.11;73.93
61474;BME280;53694;49.784;30.150;2022-11-11T01:04:17;100577.88;;;11.26;73.47
61474;BME280;53694;49.784;30.150;2022-11-11T01:05:18;100579.13;;;11.41;73.14
61474;BME280;53694;49.784;30.150;2022-11-11T01:06:20;100573.27;;;11.55;72.56
61474;BME280;53694;49.784;30.150;2022-11-11T01:07:22;100583.12;;;11.68;72.07
61474;BME280;53694;49.784;30.150;2022-11-11T01:08:24;100571.66;;;11.78;71.53
61474;BME280;53694;49.784;30.150;2022-11-11T01:09:25;100578.66;;;11.88;71.07
61474;BME280;53694;49.784;30.150;2022-11-11T01:10:27;100577.29;;;11.94;70.76
61474;BME280;53694;49.784;30.150;2022-11-11T01:11:28;100578.28;;;12.01;70.58
61474;BME280;53694;49.784;30.150;2022-11-11T01:12:30;100582.73;;;12.06;70.30
61474;BME280;53694;49.784;30.150;2022-11-11T01:13:32;100572.63;;;12.10;70.16
61474;BME280;53694;49.784;30.150;2022-11-11T01:14:33;100576.66;;;12.13;69.96
61474;BME280;53694;49.784;30.150;2022-11-11T01:15:35;100580.31;;;12.17;69.91
61474;BME280;53694;49.784;30.150;2022-11-11T01:16:37;100574.11;;;12.20;69.74
61474;BME280;53694;49.784;30.150;2022-11-11T01:17:38;100570.20;;;12.21;69.69
61474;BME280;53694;49.784;30.150;2022-11-11T01:18:40;100578.50;;;12.09;69.82
61474;BME280;53694;49.784;30.150;2022-11-11T01:19:41;100580.61;;;11.87;70.42
61474;BME280;53694;49.784;30.150;2022-11-11T01:20:43;100581.76;;;11.62;71.02
61474;BME280;53694;49.784;30.150;2022-11-11T01:21:45;100589.09;;;11.33;71.91
61474;BME280;53694;49.784;30.150;2022-11-11T01:22:47;100583.59;;;11.09;72.85
61474;BME280;53694;49.784;30.150;2022-11-11T01:23:49;100583.08;;;10.94;73.47
61474;BME280;53694;49.784;30.150;2022-11-11T01:24:51;100577.94;;;10.93;73.98
61474;BME280;53694;49.784;30.150;2022-11-11T01:25:52;100590.43;;;11.03;74.07
61474;BME280;53694;49.784;30.150;2022-11-11T01:26:54;100589.30;;;11.16;73.83
61474;BME280;53694;49.784;30.150;2022-11-11T01:27:55;100592.19;;;11.32;73.59
61474;BME280;53694;49.784;30.150;2022-11-11T01:28:57;100588.86;;;11.50;73.07
61474;BME280;53694;49.784;30.150;2022-11-11T01:29:59;100588.53;;;11.64;72.43
61474;BME280;53694;49.784;30.150;2022-11-11T01:31:08;100582.66;;;11.78;72.01
61474;BME280;53694;49.784;30.150;2022-11-11T01:32:06;100590.94;;;11.90;71.52
61474;BME280;53694;49.784;30.150;2022-11-11T01:33:09;100581.03;;;12.01;70.90
61474;BME280;53694;49.784;30.150;2022-11-11T01:34:10;100587.91;;;12.08;70.80
61474;BME280;53694;49.784;30.150;2022-11-11T01:35:12;100585.71;;;12.13;70.28
61474;BME280;53694;49.784;30.150;2022-11-11T01:36:19;100593.28;;;12.16;70.21
61474;BME280;53694;49.784;30.150;2022-11-11T01:37:21;100592.23;;;12.21;70.10
61474;BME280;53694;49.784;30.150;2022-11-11T01:38:22;100594.84;;;12.30;70.05
61474;BME280;53694;49.784;30.150;2022-11-11T01:39:24;100589.88;;;12.35;69.68
61474;BME280;53694;49.784;30.150;2022-11-11T01:40:26;100589.66;;;12.40;69.33
61474;BME280;53694;49.784;30.150;2022-11-11T01:41:33;100594.45;;;12.43;69.34
61474;BME280;53694;49.784;30.150;2022-11-11T01:42:49;100591.58;;;12.40;69.22
61474;BME280;53694;49.784;30.150;2022-11-11T01:43:51;100602.89;;;12.22;69.34
61474;BME280;53694;49.784;30.150;2022-11-11T01:44:53;100593.22;;;11.88;70.30
61474;BME280;53694;49.784;30.150;2022-11-11T01:46:00;100592.64;;;11.58;71.16
61474;BME280;53694;49.784;30.150;2022-11-11T01:47:03;100591.62;;;11.26;72.22
61474;BME280;53694;49.784;30.150;2022-11-11T01:48:07;100587.91;;;10.97;73.40
61474;BME280;53694;49.784;30.150;2022-11-11T01:49:26;100597.72;;;10.86;74.20
61474;BME280;53694;49.784;30.150;2022-11-11T01:50:28;100591.07;;;10.87;74.64
61474;BME280;53694;49.784;30.150;2022-11-11T01:53:00;100593.55;;;11.13;74.42
61474;BME280;53694;49.784;30.150;2022-11-11T01:54:06;100603.76;;;11.37;73.76
61474;BME280;53694;49.784;30.150;2022-11-11T01:55:16;100596.44;;;11.54;73.40
61474;BME280;53694;49.784;30.150;2022-11-11T01:56:18;100592.28;;;11.72;72.84
61474;BME280;53694;49.784;30.150;2022-11-11T01:58:46;100602.84;;;12.07;71.51
61474;BME280;53694;49.784;30.150;2022-11-11T01:59:49;100601.19;;;12.18;71.04
61474;BME280;53694;49.784;30.150;2022-11-11T02:00:52;100603.47;;;12.28;70.74
61474;BME280;53694;49.784;30.150;2022-11-11T02:01:54;100601.01;;;12.39;70.43
61474;BME280;53694;49.784;30.150;2022-11-11T02:03:06;100598.47;;;12.46;69.90
61474;BME280;53694;49.784;30.150;2022-11-11T02:04:10;100592.59;;;12.47;69.46
61474;BME280;53694;49.784;30.150;2022-11-11T02:05:15;100599.27;;;12.46;69.56
61474;BME280;53694;49.784;30.150;2022-11-11T02:06:17;100596.05;;;12.44;69.54
61474;BME280;53694;49.784;30.150;2022-11-11T02:07:19;100601.52;;;12.29;69.84
61474;BME280;53694;49.784;30.150;2022-11-11T02:08:24;100602.37;;;12.05;70.52
61474;BME280;53694;49.784;30.150;2022-11-11T02:09:27;100602.25;;;11.76;71.33
61474;BME280;53694;49.784;30.150;2022-11-11T02:10:31;100599.66;;;11.43;72.30
61474;BME280;53694;49.784;30.150;2022-11-11T02:11:35;100605.12;;;11.19;73.26
61474;BME280;53694;49.784;30.150;2022-11-11T02:12:38;100604.88;;;11.12;74.01
61474;BME280;53694;49.784;30.150;2022-11-11T02:13:41;100602.60;;;11.14;74.33
61474;BME280;53694;49.784;30.150;2022-11-11T02:14:46;100603.74;;;11.25;74.25
61474;BME280;53694;49.784;30.150;2022-11-11T02:15:49;100608.94;;;11.39;74.08
61474;BME280;53694;49.784;30.150;2022-11-11T02:16:51;100602.85;;;11.58;73.57
61474;BME280;53694;49.784;30.150;2022-11-11T02:17:52;100603.77;;;11.74;73.02
61474;BME280;53694;49.784;30.150;2022-11-11T02:18:54;100603.90;;;11.90;72.52
61474;BME280;53694;49.784;30.150;2022-11-11T02:20:00;100610.19;;;12.03;72.04
61474;BME280;53694;49.784;30.150;2022-11-11T02:21:02;100614.16;;;12.17;71.61
61474;BME280;53694;49.784;30.150;2022-11-11T02:22:07;100606.66;;;12.30;71.11
61474;BME280;53694;49.784;30.150;2022-11-11T02:23:15;100609.74;;;12.41;70.69
61474;BME280;53694;49.784;30.150;2022-11-11T02:24:19;100606.84;;;12.49;70.28
61474;BME280;53694;49.784;30.150;2022-11-11T02:25:24;100614.16;;;12.58;70.06
61474;BME280;53694;49.784;30.150;2022-11-11T02:26:27;100604.94;;;12.66;69.77
61474;BME280;53694;49.784;30.150;2022-11-11T02:27:30;100612.22;;;12.74;69.35
61474;BME280;53694;49.784;30.150;2022-11-11T02:28:32;100607.70;;;12.82;69.13
61474;BME280;53694;49.784;30.150;2022-11-11T02:29:35;100601.86;;;12.83;69.11
61474;BME280;53694;49.784;30.150;2022-11-11T02:30:37;100606.70;;;12.74;69.09
61474;BME280;53694;49.784;30.150;2022-11-11T02:31:38;100610.13;;;12.55;69.36
61474;BME280;53694;49.784;30.150;2022-11-11T02:32:46;100608.98;;;12.28;69.92
61474;BME280;53694;49.784;30.150;2022-11-11T02:33:48;100607.20;;;11.95;70.72
61474;BME280;53694;49.784;30.150;2022-11-11T02:34:50;100605.72;;;11.61;71.78
61474;BME280;53694;49.784;30.150;2022-11-11T02:35:54;100613.39;;;11.31;72.78
61474;BME280;53694;49.784;30.150;2022-11-11T02:36:58;100616.89;;;11.07;73.83
61474;BME280;53694;49.784;30.150;2022-11-11T02:38:01;100613.44;;;10.98;74.62
61474;BME280;53694;49.784;30.150;2022-11-11T02:39:04;100613.57;;;11.01;74.91
61474;BME280;53694;49.784;30.150;2022-11-11T02:40:06;100621.05;;;11.13;74.93
61474;BME280;53694;49.784;30.150;2022-11-11T02:41:08;100618.89;;;11.31;74.83
61474;BME280;53694;49.784;30.150;2022-11-11T02:42:12;100620.27;;;11.49;74.39
61474;BME280;53694;49.784;30.150;2022-11-11T02:43:14;100615.81;;;11.69;73.79
61474;BME280;53694;49.784;30.150;2022-11-11T02:44:16;100614.44;;;11.88;73.04
61474;BME280;53694;49.784;30.150;2022-11-11T02:45:18;100624.39;;;12.05;72.53
61474;BME280;53694;49.784;30.150;2022-11-11T02:46:20;100616.55;;;12.19;72.01
61474;BME280;53694;49.784;30.150;2022-11-11T02:47:22;100614.67;;;12.35;71.57
61474;BME280;53694;49.784;30.150;2022-11-11T02:48:23;100616.23;;;12.48;70.80
61474;BME280;53694;49.784;30.150;2022-11-11T02:49:25;100613.43;;;12.61;70.50
61474;BME280;53694;49.784;30.150;2022-11-11T02:50:27;100612.94;;;12.71;70.04
61474;BME280;53694;49.784;30.150;2022-11-11T02:51:28;100602.82;;;12.75;69.30
61474;BME280;53694;49.784;30.150;2022-11-11T02:52:30;100613.78;;;12.87;69.07
61474;BME280;53694;49.784;30.150;2022-11-11T02:53:31;100616.98;;;12.89;68.66
61474;BME280;53694;49.784;30.150;2022-11-11T02:54:33;100604.69;;;12.87;68.93
61474;BME280;53694;49.784;30.150;2022-11-11T02:55:34;100606.37;;;12.75;68.94
61474;BME280;53694;49.784;30.150;2022-11-11T02:56:36;100615.20;;;12.53;69.51
61474;BME280;53694;49.784;30.150;2022-11-11T02:57:38;100617.93;;;12.25;70.12
61474;BME280;53694;49.784;30.150;2022-11-11T02:58:39;100611.12;;;11.94;70.96
61474;BME280;53694;49.784;30.150;2022-11-11T02:59:41;100614.77;;;11.62;71.97
61474;BME280;53694;49.784;30.150;2022-11-11T03:00:43;100609.61;;;11.36;72.94
61474;BME280;53694;49.784;30.150;2022-11-11T03:01:44;100608.12;;;11.26;73.64
61474;BME280;53694;49.784;30.150;2022-11-11T03:02:46;100610.88;;;11.26;74.05
61474;BME280;53694;49.784;30.150;2022-11-11T03:03:47;100614.31;;;11.35;74.03
61474;BME280;53694;49.784;30.150;2022-11-11T03:04:49;100604.45;;;11.46;73.82
61474;BME280;53694;49.784;30.150;2022-11-11T03:05:50;100620.04;;;11.67;73.71
61474;BME280;53694;49.784;30.150;2022-11-11T03:06:52;100607.70;;;11.85;73.25
61474;BME280;53694;49.784;30.150;2022-11-11T03:07:53;100620.48;;;12.06;72.55
61474;BME280;53694;49.784;30.150;2022-11-11T03:08:55;100622.53;;;12.21;72.05
61474;BME280;53694;49.784;30.150;2022-11-11T03:09:56;100618.33;;;12.39;71.43
61474;BME280;53694;49.784;30.150;2022-11-11T03:10:58;100621.05;;;12.51;70.72
61474;BME280;53694;49.784;30.150;2022-11-11T03:12:00;100618.25;;;12.64;70.20
61474;BME280;53694;49.784;30.150;2022-11-11T03:13:01;100627.95;;;12.73;69.91
61474;BME280;53694;49.784;30.150;2022-11-11T03:14:03;100618.73;;;12.82;69.34
61474;BME280;53694;49.784;30.150;2022-11-11T03:15:05;100625.95;;;12.86;69.11
61474;BME280;53694;49.784;30.150;2022-11-11T03:16:07;100617.34;;;12.88;69.09
61474;BME280;53694;49.784;30.150;2022-11-11T03:17:09;100619.80;;;12.77;69.19
61474;BME280;53694;49.784;30.150;2022-11-11T03:18:11;100620.36;;;12.55;69.48
61474;BME280;53694;49.784;30.150;2022-11-11T03:19:12;100621.84;;;12.24;70.20
61474;BME280;53694;49.784;30.150;2022-11-11T03:20:16;100623.97;;;11.90;71.09
61474;BME280;53694;49.784;30.150;2022-11-11T03:21:18;100616.96;;;11.56;72.27
61474;BME280;53694;49.784;30.150;2022-11-11T03:22:20;100618.89;;;11.31;73.31
61474;BME280;53694;49.784;30.150;2022-11-11T03:23:21;100613.81;;;11.21;74.08
61474;BME280;53694;49.784;30.150;2022-11-11T03:24:23;100617.05;;;11.23;74.46
61474;BME280;53694;49.784;30.150;2022-11-11T03:25:25;100613.52;;;11.35;74.43
61474;BME280;53694;49.784;30.150;2022-11-11T03:26:27;100614.77;;;11.49;74.09
61474;BME280;53694;49.784;30.150;2022-11-11T03:27:28;100617.29;;;11.67;73.75
61474;BME280;53694;49.784;30.150;2022-11-11T03:28:30;100617.55;;;11.86;73.38
61474;BME280;53694;49.784;30.150;2022-11-11T03:29:31;100620.48;;;12.06;72.74
61474;BME280;53694;49.784;30.150;2022-11-11T03:30:33;100623.33;;;12.21;72.04
61474;BME280;53694;49.784;30.150;2022-11-11T03:31:35;100627.64;;;12.35;71.55
61474;BME280;53694;49.784;30.150;2022-11-11T03:32:36;100619.70;;;12.45;70.99
61474;BME280;53694;49.784;30.150;2022-11-11T03:33:38;100621.27;;;12.59;70.74
61474;BME280;53694;49.784;30.150;2022-11-11T03:34:39;100619.59;;;12.70;70.30
61474;BME280;53694;49.784;30.150;2022-11-11T03:35:41;100628.96;;;12.81;69.88
61474;BME280;53694;49.784;30.150;2022-11-11T03:36:43;100622.06;;;12.87;69.39
61474;BME280;53694;49.784;30.150;2022-11-11T03:37:45;100626.51;;;12.92;69.04
61474;BME280;53694;49.784;30.150;2022-11-11T03:38:46;100624.45;;;12.89;68.79
61474;BME280;53694;49.784;30.150;2022-11-11T03:39:48;100626.47;;;12.76;69.21
61474;BME280;53694;49.784;30.150;2022-11-11T03:40:54;100631.38;;;12.55;69.74
61474;BME280;53694;49.784;30.150;2022-11-11T03:41:57;100643.16;;;12.27;70.29
61474;BME280;53694;49.784;30.150;2022-11-11T03:42:58;100628.31;;;11.91;71.36
61474;BME280;53694;49.784;30.150;2022-11-11T03:44:00;100626.94;;;11.61;72.37
61474;BME280;53694;49.784;30.150;2022-11-11T03:45:02;100631.97;;;11.34;73.47
61474;BME280;53694;49.784;30.150;2022-11-11T03:46:04;100632.39;;;11.24;74.19
61474;BME280;53694;49.784;30.150;2022-11-11T03:47:06;100644.98;;;11.25;74.60
61474;BME280;53694;49.784;30.150;2022-11-11T03:48:08;100639.52;;;11.37;74.73
61474;BME280;53694;49.784;30.150;2022-11-11T03:49:09;100643.08;;;11.50;74.50
61474;BME280;53694;49.784;30.150;2022-11-11T03:50:12;100638.98;;;11.68;74.18
61474;BME280;53694;49.784;30.150;2022-11-11T03:51:13;100636.45;;;11.88;73.60
61474;BME280;53694;49.784;30.150;2022-11-11T03:52:15;100641.39;;;12.07;73.11
61474;BME280;53694;49.784;30.150;2022-11-11T03:53:18;100638.37;;;12.24;72.56
61474;BME280;53694;49.784;30.150;2022-11-11T03:54:20;100640.05;;;12.41;71.76
61474;BME280;53694;49.784;30.150;2022-11-11T03:55:21;100637.25;;;12.53;71.24
61474;BME280;53694;49.784;30.150;2022-11-11T03:56:23;100639.50;;;12.63;70.81
61474;BME280;53694;49.784;30.150;2022-11-11T03:57:24;100633.47;;;12.73;70.46
61474;BME280;53694;49.784;30.150;2022-11-11T03:58:26;100634.94;;;12.83;70.17
61474;BME280;53694;49.784;30.150;2022-11-11T03:59:27;100632.92;;;12.96;69.78
61474;BME280;53694;49.784;30.150;2022-11-11T04:00:29;100640.67;;;13.06;69.68
61474;BME280;53694;49.784;30.150;2022-11-11T04:01:30;100632.23;;;13.15;68.66
61474;BME280;53694;49.784;30.150;2022-11-11T04:02:32;100632.49;;;13.10;68.45
61474;BME280;53694;49.784;30.150;2022-11-11T04:03:33;100634.05;;;12.95;68.91
61474;BME280;53694;49.784;30.150;2022-11-11T04:04:35;100631.08;;;12.72;69.34
61474;BME280;53694;49.784;30.150;2022-11-11T04:05:36;100628.66;;;12.42;70.10
61474;BME280;53694;49.784;30.150;2022-11-11T04:06:38;100639.07;;;12.09;70.95
61474;BME280;53694;49.784;30.150;2022-11-11T04:07:39;100629.33;;;11.74;72.08
61474;BME280;53694;49.784;30.150;2022-11-11T04:08:41;100635.98;;;11.49;73.17
61474;BME280;53694;49.784;30.150;2022-11-11T04:09:43;100641.11;;;11.38;73.99
61474;BME280;53694;49.784;30.150;2022-11-11T04:10:45;100629.78;;;11.40;74.31
61474;BME280;53694;49.784;30.150;2022-11-11T04:11:46;100636.78;;;11.49;74.29
61474;BME280;53694;49.784;30.150;2022-11-11T04:12:48;100639.66;;;11.65;74.13
61474;BME280;53694;49.784;30.150;2022-11-11T04:13:51;100629.23;;;11.83;73.80
61474;BME280;53694;49.784;30.150;2022-11-11T04:14:54;100633.02;;;12.03;73.24
61474;BME280;53694;49.784;30.150;2022-11-11T04:15:55;100633.55;;;12.21;72.57
61474;BME280;53694;49.784;30.150;2022-11-11T04:16:57;100639.46;;;12.35;71.97
61474;BME280;53694;49.784;30.150;2022-11-11T04:17:59;100636.67;;;12.47;71.52
61474;BME280;53694;49.784;30.150;2022-11-11T04:19:00;100640.98;;;12.61;71.13
61474;BME280;53694;49.784;30.150;2022-11-11T04:20:03;100638.66;;;12.75;70.80
61474;BME280;53694;49.784;30.150;2022-11-11T04:21:05;100640.89;;;12.85;70.02
61474;BME280;53694;49.784;30.150;2022-11-11T04:22:06;100652.12;;;12.92;69.71
61474;BME280;53694;49.784;30.150;2022-11-11T04:23:08;100647.61;;;13.00;69.29
61474;BME280;53694;49.784;30.150;2022-11-11T04:24:11;100648.50;;;13.04;68.99
61474;BME280;53694;49.784;30.150;2022-11-11T04:25:13;100649.20;;;13.01;68.82
61474;BME280;53694;49.784;30.150;2022-11-11T04:26:15;100651.12;;;12.85;69.00
61474;BME280;53694;49.784;30.150;2022-11-11T04:27:18;100653.17;;;12.60;69.70
61474;BME280;53694;49.784;30.150;2022-11-11T04:28:20;100658.99;;;12.30;70.54
61474;BME280;53694;49.784;30.150;2022-11-11T04:29:21;100651.25;;;11.95;71.47
61474;BME280;53694;49.784;30.150;2022-11-11T04:30:23;100648.23;;;11.64;72.55
61474;BME280;53694;49.784;30.150;2022-11-11T04:31:24;100660.84;;;11.40;73.64
61474;BME280;53694;49.784;30.150;2022-11-11T04:32:26;100651.89;;;11.31;74.39
61474;BME280;53694;49.784;30.150;2022-11-11T04:33:27;100652.81;;;11.35;74.68
61474;BME280;53694;49.784;30.150;2022-11-11T04:34:29;100659.45;;;11.46;74.69
61474;BME280;53694;49.784;30.150;2022-11-11T04:35:30;100663.50;;;11.61;74.22
61474;BME280;53694;49.784;30.150;2022-11-11T04:36:32;100665.22;;;11.78;73.84
61474;BME280;53694;49.784;30.150;2022-11-11T04:37:35;100660.66;;;11.94;73.34
61474;BME280;53694;49.784;30.150;2022-11-11T04:38:37;100661.57;;;12.11;72.89
61474;BME280;53694;49.784;30.150;2022-11-11T04:39:38;100674.61;;;12.26;72.46
61474;BME280;53694;49.784;30.150;2022-11-11T04:40:40;100673.90;;;12.41;71.69
61474;BME280;53694;49.784;30.150;2022-11-11T04:41:41;100665.13;;;12.51;71.20
61474;BME280;53694;49.784;30.150;2022-11-11T04:42:43;100674.16;;;12.64;70.84
61474;BME280;53694;49.784;30.150;2022-11-11T04:43:44;100663.35;;;12.71;70.42
61474;BME280;53694;49.784;30.150;2022-11-11T04:44:46;100662.84;;;12.82;70.10
61474;BME280;53694;49.784;30.150;2022-11-11T04:45:47;100665.44;;;12.90;69.67
61474;BME280;53694;49.784;30.150;2022-11-11T04:46:49;100665.65;;;12.97;69.40
61474;BME280;53694;49.784;30.150;2022-11-11T04:49:04;100666.98;;;13.04;69.04
61474;BME280;53694;49.784;30.150;2022-11-11T04:50:07;100669.25;;;12.86;69.18
61474;BME280;53694;49.784;30.150;2022-11-11T04:51:08;100674.85;;;12.61;69.88
61474;BME280;53694;49.784;30.150;2022-11-11T04:52:10;100674.83;;;12.33;70.59
61474;BME280;53694;49.784;30.150;2022-11-11T04:53:13;100671.55;;;12.03;71.52
61474;BME280;53694;49.784;30.150;2022-11-11T04:54:15;100672.09;;;11.72;72.35
61474;BME280;53694;49.784;30.150;2022-11-11T04:55:17;100668.86;;;11.45;73.39
61474;BME280;53694;49.784;30.150;2022-11-11T04:56:19;100670.92;;;11.36;74.11
61474;BME280;53694;49.784;30.150;2022-11-11T04:57:20;100674.11;;;11.38;74.53
61474;BME280;53694;49.784;30.150;2022-11-11T04:58:23;100668.19;;;11.48;74.50
61474;BME280;53694;49.784;30.150;2022-11-11T04:59:25;100681.25;;;11.64;74.22
61474;BME280;53694;49.784;30.150;2022-11-11T05:00:27;100673.60;;;11.82;73.83
61474;BME280;53694;49.784;30.150;2022-11-11T05:01:29;100676.14;;;11.99;73.40
61474;BME280;53694;49.784;30.150;2022-11-11T05:02:30;100683.00;;;12.17;72.84
61474;BME280;53694;49.784;30.150;2022-11-11T05:03:31;100679.98;;;12.35;72.44
61474;BME280;53694;49.784;30.150;2022-11-11T05:04:33;100680.87;;;12.51;71.72
61474;BME280;53694;49.784;30.150;2022-11-11T05:05:34;100682.10;;;12.66;71.28
61474;BME280;53694;49.784;30.150;2022-11-11T05:06:36;100680.43;;;12.77;70.68
61474;BME280;53694;49.784;30.150;2022-11-11T05:07:37;100674.87;;;12.89;70.15
61474;BME280;53694;49.784;30.150;2022-11-11T05:08:41;100675.98;;;13.00;69.83
61474;BME280;53694;49.784;30.150;2022-11-11T05:09:42;100679.81;;;13.12;69.45
61474;BME280;53694;49.784;30.150;2022-11-11T05:10:44;100678.18;;;13.23;68.86
61474;BME280;53694;49.784;30.150;2022-11-11T05:11:45;100682.20;;;13.25;68.64
61474;BME280;53694;49.784;30.150;2022-11-11T05:12:47;100684.63;;;13.15;68.64
61474;BME280;53694;49.784;30.150;2022-11-11T05:13:49;100689.20;;;12.95;68.86
61474;BME280;53694;49.784;30.150;2022-11-11T05:14:51;100691.97;;;12.67;69.48
61474;BME280;53694;49.784;30.150;2022-11-11T05:15:52;100696.19;;;12.36;70.18
61474;BME280;53694;49.784;30.150;2022-11-11T05:16:55;100695.98;;;12.05;71.25
61474;BME280;53694;49.784;30.150;2022-11-11T05:17:57;100693.30;;;11.71;72.27
61474;BME280;53694;49.784;30.150;2022-11-11T05:18:59;100693.30;;;11.47;73.32
61474;BME280;53694;49.784;30.150;2022-11-11T05:20:00;100694.52;;;11.37;74.03
61474;BME280;53694;49.784;30.150;2022-11-11T05:21:03;100694.64;;;11.41;74.45
61474;BME280;53694;49.784;30.150;2022-11-11T05:22:22;100696.62;;;11.53;74.40
61474;BME280;53694;49.784;30.150;2022-11-11T05:23:25;100700.31;;;11.69;74.05
61474;BME280;53694;49.784;30.150;2022-11-11T05:24:26;100704.23;;;11.92;73.57
61474;BME280;53694;49.784;30.150;2022-11-11T05:25:28;100701.00;;;12.15;73.04